createdAt,value
2018-06-30T00:02:02.993Z,3.93
2018-06-30T00:04:31.344Z,4.10
2018-06-30T00:06:59.879Z,3.37
2018-06-30T00:09:28.269Z,3.50
2018-06-30T00:11:56.903Z,3.73
2018-06-30T00:14:25.270Z,3.70
2018-06-30T00:16:53.625Z,3.83
2018-06-30T00:19:21.976Z,4.80
2018-06-30T00:21:50.327Z,3.20
2018-06-30T00:24:18.684Z,3.70
2018-06-30T00:26:47.088Z,4.57
2018-06-30T00:29:15.490Z,4.67
2018-06-30T00:31:43.966Z,4.13
2018-06-30T00:34:12.356Z,4.03
2018-06-30T00:36:40.724Z,4.37
2018-06-30T00:39:09.613Z,3.90
2018-06-30T00:41:37.951Z,5.27
2018-06-30T00:44:06.835Z,5.17
2018-06-30T00:46:35.279Z,5.07
2018-06-30T00:49:03.554Z,4.83
2018-06-30T00:51:31.977Z,4.93
2018-06-30T00:54:01.171Z,3.90
2018-06-30T00:56:30.126Z,3.67
2018-06-30T00:58:58.530Z,4.47
2018-06-30T01:01:26.876Z,4.40
2018-06-30T01:03:55.250Z,4.67
2018-06-30T01:06:24.171Z,4.73
2018-06-30T01:08:52.545Z,3.73
2018-06-30T01:11:20.807Z,4.37
2018-06-30T01:13:49.135Z,5.00
2018-06-30T01:16:17.515Z,4.20
2018-06-30T01:18:45.880Z,3.40
2018-06-30T01:21:14.236Z,3.70
2018-06-30T01:23:42.745Z,3.97
2018-06-30T01:26:11.801Z,4.83
2018-06-30T01:28:39.859Z,4.10
2018-06-30T01:31:08.195Z,4.30
2018-06-30T01:33:36.671Z,3.70
2018-06-30T01:36:05.571Z,4.10
2018-06-30T01:38:34.041Z,2.67
2018-06-30T01:41:02.435Z,4.70
2018-06-30T01:43:30.792Z,4.40
2018-06-30T01:45:59.161Z,4.10
2018-06-30T01:48:27.512Z,4.23
2018-06-30T01:50:55.775Z,4.30
2018-06-30T01:53:24.267Z,5.73
2018-06-30T01:55:52.629Z,5.80
2018-06-30T01:58:21.041Z,6.33
2018-06-30T02:00:49.297Z,4.63
2018-06-30T02:03:17.659Z,4.27
2018-06-30T02:05:46.053Z,5.40
2018-06-30T02:08:14.380Z,5.83
2018-06-30T02:10:42.861Z,6.63
2018-06-30T02:13:11.824Z,4.60
2018-06-30T02:15:40.181Z,5.20
2018-06-30T02:18:09.281Z,4.53
2018-06-30T02:20:37.619Z,3.20
2018-06-30T02:23:06.009Z,5.10
2018-06-30T02:25:34.779Z,4.67
2018-06-30T02:28:03.212Z,4.00
2018-06-30T02:30:31.599Z,5.73
2018-06-30T02:33:00.032Z,3.53
2018-06-30T02:35:28.394Z,7.30
2018-06-30T02:37:57.209Z,6.73
2018-06-30T02:40:25.568Z,5.03
2018-06-30T02:42:53.965Z,5.10
2018-06-30T02:45:22.317Z,3.63
2018-06-30T02:47:50.717Z,4.20
2018-06-30T02:50:19.176Z,3.47
2018-06-30T02:52:47.523Z,2.77
2018-06-30T02:55:15.878Z,4.60
2018-06-30T02:57:44.244Z,4.23
2018-06-30T03:00:13.399Z,4.60
2018-06-30T03:02:42.023Z,4.90
2018-06-30T03:05:10.472Z,4.50
2018-06-30T03:07:38.809Z,5.00
2018-06-30T03:10:07.166Z,3.30
2018-06-30T03:12:35.488Z,3.80
2018-06-30T03:15:03.898Z,4.20
2018-06-30T03:17:32.361Z,3.07
2018-06-30T03:20:00.716Z,4.87
2018-06-30T03:22:29.089Z,3.80
2018-06-30T03:24:57.545Z,5.03
2018-06-30T03:27:26.465Z,3.97
2018-06-30T03:29:54.820Z,3.53
2018-06-30T03:32:23.285Z,3.80
2018-06-30T03:34:51.439Z,3.90
2018-06-30T03:37:19.841Z,3.80
2018-06-30T03:39:48.302Z,4.47
2018-06-30T03:42:16.645Z,4.53
2018-06-30T03:44:44.706Z,3.73
2018-06-30T03:47:12.807Z,3.00
2018-06-30T03:49:41.152Z,4.60
2018-06-30T03:52:09.244Z,4.93
2018-06-30T03:54:37.748Z,3.83
2018-06-30T03:57:06.089Z,4.70
2018-06-30T03:59:34.506Z,4.80
2018-06-30T04:02:02.913Z,3.87
2018-06-30T04:04:31.389Z,3.63
2018-06-30T04:06:59.734Z,4.00
2018-06-30T04:09:28.664Z,4.30
2018-06-30T04:11:57.120Z,3.53
2018-06-30T04:14:25.465Z,3.73
2018-06-30T04:16:53.837Z,3.60
2018-06-30T04:19:22.182Z,4.23
2018-06-30T04:21:50.645Z,5.37
2018-06-30T04:24:19.748Z,4.70
2018-06-30T04:26:48.664Z,4.63
2018-06-30T04:29:17.023Z,4.20
2018-06-30T04:31:45.344Z,4.80
2018-06-30T04:34:13.744Z,3.30
2018-06-30T04:36:42.164Z,3.67
2018-06-30T04:39:10.771Z,4.37
2018-06-30T04:41:39.224Z,3.50
2018-06-30T04:44:07.397Z,4.03
2018-06-30T04:46:35.746Z,4.30
2018-06-30T04:49:04.136Z,4.40
2018-06-30T04:51:32.552Z,4.30
2018-06-30T04:54:00.893Z,3.83
2018-06-30T04:56:29.466Z,4.63
2018-06-30T04:58:57.968Z,3.67
2018-06-30T05:01:26.349Z,3.73
2018-06-30T05:03:54.700Z,3.33
2018-06-30T05:06:23.083Z,3.80
2018-06-30T05:08:51.536Z,3.47
2018-06-30T05:11:19.922Z,3.60
2018-06-30T05:13:48.441Z,5.97
2018-06-30T05:16:16.804Z,5.30
2018-06-30T05:18:45.208Z,3.73
2018-06-30T05:21:13.282Z,6.83
2018-06-30T05:23:41.808Z,6.63
2018-06-30T05:26:10.884Z,5.50
2018-06-30T05:28:39.257Z,6.47
2018-06-30T05:31:07.585Z,4.87
2018-06-30T05:33:36.057Z,6.40
2018-06-30T05:36:04.448Z,7.70
2018-06-30T05:41:07.718Z,6.47
2018-06-30T05:43:36.026Z,5.27
2018-06-30T05:46:04.608Z,7.60
2018-06-30T05:48:33.600Z,5.03
2018-06-30T05:51:01.942Z,7.37
2018-06-30T05:53:30.380Z,5.93
2018-06-30T05:55:58.806Z,6.00
2018-06-30T05:58:27.280Z,6.80
2018-06-30T06:00:55.840Z,5.67
2018-06-30T06:03:24.193Z,6.10
2018-06-30T06:05:52.700Z,5.30
2018-06-30T06:08:21.041Z,6.17
2018-06-30T06:13:24.268Z,5.07
2018-06-30T06:15:52.617Z,3.27
2018-06-30T06:18:21.015Z,2.60
2018-06-30T06:20:49.432Z,2.60
2018-06-30T06:25:52.695Z,2.07
2018-06-30T06:28:21.000Z,2.10
2018-06-30T06:30:49.414Z,2.43
2018-06-30T06:33:17.768Z,2.00
2018-06-30T06:35:46.245Z,2.40
2018-06-30T06:38:14.649Z,2.27
2018-06-30T06:40:43.152Z,3.67
2018-06-30T06:43:11.782Z,2.00
2018-06-30T06:45:40.132Z,2.27
2018-06-30T06:48:08.564Z,2.23
2018-06-30T06:50:36.944Z,2.10
2018-06-30T06:53:05.910Z,2.53
2018-06-30T06:55:34.296Z,2.13
2018-06-30T06:58:03.004Z,2.00
2018-06-30T07:00:32.061Z,2.10
2018-06-30T07:03:00.827Z,1.73
2018-06-30T07:05:29.285Z,2.10
2018-06-30T07:07:57.702Z,1.63
2018-06-30T07:10:26.095Z,1.70
2018-06-30T07:12:55.212Z,1.50
2018-06-30T07:15:23.664Z,1.83
2018-06-30T07:17:51.988Z,1.70
2018-06-30T07:20:20.398Z,1.60
2018-06-30T07:22:48.754Z,1.97
2018-06-30T07:25:17.126Z,1.60
2018-06-30T07:27:45.524Z,1.83
2018-06-30T07:30:13.701Z,1.60
2018-06-30T07:32:42.223Z,1.50
2018-06-30T07:35:10.672Z,1.93
2018-06-30T07:37:39.027Z,1.80
2018-06-30T07:40:07.272Z,1.33
2018-06-30T07:42:35.726Z,1.90
2018-06-30T07:45:04.231Z,1.50
2018-06-30T07:47:32.600Z,1.80
2018-06-30T07:50:01.027Z,1.60
2018-06-30T07:52:29.392Z,1.60
2018-06-30T07:54:57.774Z,1.80
2018-06-30T07:57:26.240Z,1.70
2018-06-30T07:59:54.603Z,1.70
2018-06-30T08:02:23.052Z,2.00
2018-06-30T08:04:51.507Z,2.10
2018-06-30T08:07:19.603Z,2.63
2018-06-30T08:09:47.654Z,1.87
2018-06-30T08:12:15.732Z,1.90
2018-06-30T08:14:43.809Z,2.10
2018-06-30T08:17:12.715Z,1.83
2018-06-30T08:19:41.068Z,1.93
2018-06-30T08:22:09.472Z,2.00
2018-06-30T08:24:37.848Z,1.83
2018-06-30T08:27:06.264Z,1.57
2018-06-30T08:29:34.684Z,1.63
2018-06-30T08:32:03.029Z,1.20
2018-06-30T08:34:31.499Z,1.67
2018-06-30T08:36:59.834Z,1.50
2018-06-30T08:39:28.183Z,1.47
2018-06-30T08:41:56.570Z,1.90
2018-06-30T08:44:24.926Z,1.40
2018-06-30T08:46:53.381Z,1.53
2018-06-30T08:49:21.785Z,2.30
2018-06-30T08:51:50.179Z,2.97
2018-06-30T08:54:18.525Z,1.40
2018-06-30T08:56:47.567Z,1.90
2018-06-30T08:59:15.948Z,1.47
2018-06-30T09:01:44.311Z,1.47
2018-06-30T09:04:12.715Z,1.20
2018-06-30T09:06:41.148Z,1.90
2018-06-30T09:09:10.565Z,1.60
2018-06-30T09:11:38.974Z,1.70
2018-06-30T09:14:07.558Z,1.40
2018-06-30T09:16:36.080Z,1.73
2018-06-30T09:19:04.653Z,1.60
2018-06-30T09:21:33.044Z,1.13
2018-06-30T09:24:01.530Z,1.40
2018-06-30T09:26:29.558Z,1.83
2018-06-30T09:28:58.277Z,2.10
2018-06-30T09:31:26.749Z,1.40
2018-06-30T09:33:55.086Z,1.97
2018-06-30T09:36:23.475Z,1.63
2018-06-30T09:38:51.850Z,1.50
2018-06-30T09:41:20.248Z,1.57
2018-06-30T09:43:49.120Z,1.50
2018-06-30T09:46:17.235Z,1.87
2018-06-30T09:48:45.697Z,1.63
2018-06-30T09:51:14.095Z,1.40
2018-06-30T09:53:42.526Z,2.10
2018-06-30T09:56:10.934Z,1.50
2018-06-30T09:58:42.514Z,1.47
2018-06-30T10:01:10.922Z,1.90
2018-06-30T10:03:40.131Z,1.70
2018-06-30T10:06:08.556Z,1.30
2018-06-30T10:08:36.960Z,1.37
2018-06-30T10:11:05.383Z,1.63
2018-06-30T10:13:33.765Z,0.97
2018-06-30T10:16:02.195Z,1.30
2018-06-30T10:18:30.627Z,1.87
2018-06-30T10:20:59.205Z,1.27
2018-06-30T10:23:28.224Z,1.83
2018-06-30T10:25:56.601Z,1.40
2018-06-30T10:28:24.963Z,1.30
2018-06-30T10:30:53.407Z,1.50
2018-06-30T10:33:21.777Z,1.40
2018-06-30T10:35:50.229Z,1.77
2018-06-30T10:38:18.607Z,1.43
2018-06-30T10:40:47.006Z,1.70
2018-06-30T10:43:15.439Z,1.40
2018-06-30T10:45:43.840Z,1.70
2018-06-30T10:48:12.288Z,1.57
2018-06-30T10:50:40.659Z,1.70
2018-06-30T10:53:09.069Z,1.30
2018-06-30T10:55:37.522Z,0.97
2018-06-30T10:58:05.957Z,1.57
2018-06-30T11:00:34.471Z,1.60
2018-06-30T11:03:02.916Z,1.27
2018-06-30T11:05:31.878Z,1.40
2018-06-30T11:08:00.245Z,1.40
2018-06-30T11:10:28.671Z,1.50
2018-06-30T11:12:57.847Z,1.40
2018-06-30T11:15:26.269Z,1.60
2018-06-30T11:17:54.667Z,1.60
2018-06-30T11:20:23.074Z,1.70
2018-06-30T11:22:51.559Z,1.70
2018-06-30T11:25:19.955Z,1.43
2018-06-30T11:27:48.351Z,1.80
2018-06-30T11:30:16.751Z,1.87
2018-06-30T11:32:45.163Z,1.20
2018-06-30T11:35:13.244Z,1.57
2018-06-30T11:37:41.642Z,1.47
2018-06-30T11:40:10.101Z,1.23
2018-06-30T11:42:38.508Z,1.17
2018-06-30T11:45:06.931Z,1.23
2018-06-30T11:47:35.328Z,1.10
2018-06-30T11:50:03.847Z,1.80
2018-06-30T11:52:32.330Z,1.53
2018-06-30T11:55:00.704Z,1.10
2018-06-30T11:57:29.164Z,1.60
2018-06-30T11:59:57.565Z,1.30
2018-06-30T12:02:25.980Z,1.53
2018-06-30T12:07:29.102Z,1.37
2018-06-30T12:09:57.474Z,1.23
2018-06-30T12:12:25.840Z,1.40
2018-06-30T12:14:54.286Z,1.30
2018-06-30T12:17:30.574Z,1.43
2018-06-30T12:20:01.111Z,1.57
2018-06-30T12:22:29.616Z,1.53
2018-06-30T12:24:58.124Z,1.47
2018-06-30T12:27:26.705Z,1.60
2018-06-30T12:29:55.140Z,1.70
2018-06-30T12:32:23.621Z,1.40
2018-06-30T12:34:52.005Z,1.57
2018-06-30T12:37:20.090Z,1.10
2018-06-30T12:39:48.506Z,1.83
2018-06-30T12:42:16.943Z,1.00
2018-06-30T12:44:45.399Z,1.13
2018-06-30T12:47:13.750Z,1.40
2018-06-30T12:49:42.715Z,1.50
2018-06-30T12:52:10.959Z,1.20
2018-06-30T12:54:39.505Z,1.47
2018-06-30T12:57:07.954Z,1.33
2018-06-30T12:59:36.431Z,1.50
2018-06-30T13:02:04.864Z,1.70
2018-06-30T13:04:33.282Z,1.10
2018-06-30T13:07:01.666Z,1.10
2018-06-30T13:09:30.126Z,1.30
2018-06-30T13:11:58.913Z,1.50
2018-06-30T13:14:27.324Z,1.23
2018-06-30T13:16:56.394Z,1.90
2018-06-30T13:19:24.813Z,1.20
2018-06-30T13:21:53.228Z,1.90
2018-06-30T13:24:21.622Z,1.40
2018-06-30T13:26:50.624Z,1.60
2018-06-30T13:29:19.042Z,1.50
2018-06-30T13:31:47.500Z,1.67
2018-06-30T13:34:15.906Z,1.53
2018-06-30T13:36:44.342Z,1.40
2018-06-30T13:39:14.424Z,1.40
2018-06-30T13:41:43.164Z,1.47
2018-06-30T13:44:12.168Z,1.30
2018-06-30T13:46:40.594Z,1.97
2018-06-30T13:49:09.176Z,1.60
2018-06-30T13:51:37.598Z,1.30
2018-06-30T13:54:06.444Z,1.23
2018-06-30T13:56:34.950Z,1.33
2018-06-30T13:59:03.442Z,1.50
2018-06-30T14:01:31.765Z,1.47
2018-06-30T14:04:00.172Z,1.12
2018-06-30T14:06:28.707Z,1.40
2018-06-30T14:08:57.202Z,1.67
2018-06-30T14:11:25.771Z,1.23
2018-06-30T14:13:54.701Z,1.90
2018-06-30T14:16:23.122Z,1.77
2018-06-30T14:18:51.545Z,1.63
2018-06-30T14:21:20.695Z,1.50
2018-06-30T14:23:49.761Z,1.93
2018-06-30T14:26:18.162Z,1.50
2018-06-30T14:28:46.578Z,1.40
2018-06-30T14:31:14.969Z,1.63
2018-06-30T14:33:44.141Z,1.83
2018-06-30T14:36:12.726Z,1.37
2018-06-30T14:38:41.444Z,1.20
2018-06-30T14:41:10.517Z,1.80
2018-06-30T14:43:38.687Z,1.50
2018-06-30T14:46:07.313Z,1.40
2018-06-30T14:48:35.936Z,1.60
2018-06-30T14:51:04.400Z,1.40
2018-06-30T14:53:32.926Z,1.70
2018-06-30T14:56:01.422Z,1.80
2018-06-30T14:58:29.840Z,1.47
2018-06-30T15:00:58.262Z,1.43
2018-06-30T15:03:26.700Z,1.40
2018-06-30T15:05:55.331Z,1.30
2018-06-30T15:08:24.355Z,1.40
2018-06-30T15:10:52.869Z,1.30
2018-06-30T15:13:21.318Z,1.60
2018-06-30T15:15:49.755Z,1.60
2018-06-30T15:18:18.297Z,1.63
2018-06-30T15:20:46.691Z,1.57
2018-06-30T15:23:15.128Z,1.37
2018-06-30T15:25:43.523Z,2.03
2018-06-30T15:28:11.893Z,1.50
2018-06-30T15:30:40.331Z,1.60
2018-06-30T15:33:09.541Z,1.50
2018-06-30T15:35:37.793Z,1.63
2018-06-30T15:38:06.187Z,1.33
2018-06-30T15:40:34.577Z,1.93
2018-06-30T15:43:02.968Z,1.43
2018-06-30T15:45:31.420Z,1.47
2018-06-30T15:47:59.827Z,1.77
2018-06-30T15:50:28.244Z,1.70
2018-06-30T15:52:56.655Z,1.70
2018-06-30T15:55:25.119Z,2.17
2018-06-30T15:57:53.564Z,1.67
2018-06-30T16:00:21.945Z,1.70
2018-06-30T16:02:50.393Z,1.50
2018-06-30T16:05:18.768Z,1.60
2018-06-30T16:07:46.849Z,1.70
2018-06-30T16:10:15.245Z,1.77
2018-06-30T16:12:44.241Z,1.70
2018-06-30T16:15:12.650Z,2.10
2018-06-30T16:17:41.060Z,1.83
2018-06-30T16:20:09.474Z,1.70
2018-06-30T16:22:38.191Z,2.00
2018-06-30T16:25:07.113Z,1.67
2018-06-30T16:27:35.603Z,2.30
2018-06-30T16:30:04.737Z,1.70
2018-06-30T16:32:32.803Z,2.07
2018-06-30T16:35:01.213Z,2.00
2018-06-30T16:37:29.612Z,1.77
2018-06-30T16:39:57.983Z,1.93
2018-06-30T16:42:26.353Z,2.33
2018-06-30T16:44:54.804Z,1.73
2018-06-30T16:47:23.201Z,2.07
2018-06-30T16:49:51.635Z,2.00
2018-06-30T16:52:20.087Z,1.93
2018-06-30T16:54:48.551Z,2.70
2018-06-30T16:57:17.133Z,2.60
2018-06-30T16:59:46.641Z,2.27
2018-06-30T17:02:15.209Z,2.23
2018-06-30T17:04:45.325Z,1.70
2018-06-30T17:07:14.721Z,2.00
2018-06-30T17:09:43.691Z,2.33
2018-06-30T17:12:12.639Z,2.07
2018-06-30T17:27:38.937Z,2.43
2018-06-30T17:30:08.918Z,2.03
2018-06-30T17:32:37.875Z,2.20
2018-06-30T17:35:08.262Z,2.43
2018-06-30T17:37:37.565Z,2.43
2018-06-30T17:40:06.601Z,2.30
2018-06-30T17:42:35.717Z,2.17
2018-06-30T17:45:05.465Z,2.33
2018-06-30T17:47:34.398Z,2.10
2018-06-30T17:50:02.859Z,2.37
2018-06-30T17:52:31.254Z,2.13
2018-06-30T17:54:59.828Z,2.27
2018-06-30T17:57:28.243Z,2.83
2018-06-30T17:59:56.660Z,2.60
2018-06-30T18:02:25.075Z,2.03
2018-06-30T18:04:53.587Z,2.20
2018-06-30T18:07:22.049Z,2.33
2018-06-30T18:09:50.516Z,2.50
2018-06-30T18:12:18.908Z,2.53
2018-06-30T18:14:47.306Z,2.43
2018-06-30T18:17:15.552Z,2.37
2018-06-30T18:19:43.946Z,2.17
2018-06-30T18:22:12.357Z,2.53
2018-06-30T18:24:40.768Z,2.80
2018-06-30T18:27:09.150Z,3.27
2018-06-30T18:29:37.536Z,2.10
2018-06-30T18:32:06.048Z,1.90
2018-06-30T18:34:34.488Z,2.50
2018-06-30T18:37:02.926Z,2.37
2018-06-30T18:39:31.397Z,2.80
2018-06-30T18:41:59.766Z,2.40
2018-06-30T18:44:28.196Z,2.80
2018-06-30T18:46:56.595Z,2.73
2018-06-30T18:49:25.032Z,2.83
2018-06-30T18:51:54.435Z,2.47
2018-06-30T18:54:22.825Z,2.80
2018-06-30T18:56:51.262Z,2.63
2018-06-30T18:59:20.268Z,2.43
2018-06-30T19:01:48.434Z,2.60
2018-06-30T19:04:16.800Z,3.20
2018-06-30T19:06:45.900Z,2.60
2018-06-30T19:09:14.267Z,2.87
2018-06-30T19:11:42.730Z,2.67
2018-06-30T19:14:11.878Z,2.47
2018-06-30T19:16:40.226Z,2.73
2018-06-30T19:19:08.636Z,2.90
2018-06-30T19:21:37.146Z,2.67
2018-06-30T19:24:05.613Z,3.00
2018-06-30T19:26:33.726Z,2.50
2018-06-30T19:29:02.105Z,3.30
2018-06-30T19:31:30.531Z,3.30
2018-06-30T19:33:59.601Z,2.80
2018-06-30T19:36:27.982Z,3.40
2018-06-30T19:38:56.386Z,3.03
2018-06-30T19:41:24.812Z,2.77
2018-06-30T19:43:53.198Z,2.93
2018-06-30T19:46:21.585Z,4.27
2018-06-30T19:48:50.115Z,3.07
2018-06-30T19:51:18.554Z,2.97
2018-06-30T19:53:46.920Z,3.10
2018-06-30T19:56:15.382Z,3.80
2018-06-30T19:58:43.767Z,3.63
2018-06-30T20:01:13.040Z,3.20
2018-06-30T20:03:41.588Z,3.30
2018-06-30T20:06:10.649Z,3.40
2018-06-30T20:08:38.995Z,3.00
2018-06-30T20:11:07.460Z,3.90
2018-06-30T20:13:35.798Z,3.40
2018-06-30T20:16:04.238Z,3.60
2018-06-30T20:18:32.736Z,3.53
2018-06-30T20:21:01.988Z,3.37
2018-06-30T20:23:30.361Z,2.93
2018-06-30T20:25:58.734Z,3.33
2018-06-30T20:28:27.634Z,3.77
2018-06-30T20:30:56.696Z,3.63
2018-06-30T20:33:25.098Z,3.60
2018-06-30T20:35:53.597Z,3.43
2018-06-30T20:38:21.988Z,3.07
2018-06-30T20:40:50.419Z,3.17
2018-06-30T20:43:18.936Z,4.50
2018-06-30T20:45:47.808Z,3.80
2018-06-30T20:48:16.685Z,4.10
2018-06-30T20:50:45.140Z,4.30
2018-06-30T20:53:13.496Z,3.50
2018-06-30T20:55:41.892Z,3.53
2018-06-30T20:58:10.268Z,3.33
2018-06-30T21:00:38.634Z,4.47
2018-06-30T21:03:07.247Z,4.40
2018-06-30T21:05:36.726Z,3.97
2018-06-30T21:08:05.210Z,4.33
2018-06-30T21:10:33.692Z,3.83
2018-06-30T21:13:02.212Z,4.27
2018-06-30T21:15:31.229Z,3.90
2018-06-30T21:17:59.605Z,4.10
2018-06-30T21:20:27.965Z,3.60
2018-06-30T21:22:56.324Z,4.40
2018-06-30T21:25:24.720Z,3.40
2018-06-30T21:27:53.697Z,3.90
2018-06-30T21:30:22.869Z,4.60
2018-06-30T21:33:00.698Z,3.73
2018-06-30T21:35:29.109Z,4.00
2018-06-30T21:37:57.461Z,3.97
2018-06-30T21:40:25.849Z,3.53
2018-06-30T21:42:54.223Z,3.67
2018-06-30T21:45:29.815Z,4.10
2018-06-30T21:47:58.198Z,3.67
2018-06-30T21:50:26.566Z,4.40
2018-06-30T21:52:54.954Z,5.20
2018-06-30T21:55:23.414Z,4.00
2018-06-30T21:57:51.790Z,3.87
2018-06-30T22:00:30.800Z,3.53
2018-06-30T22:02:59.196Z,3.87
2018-06-30T22:05:27.573Z,4.00
2018-06-30T22:07:56.118Z,3.60
2018-06-30T22:10:24.509Z,3.40
2018-06-30T22:12:52.936Z,3.83
2018-06-30T22:15:21.312Z,5.17
2018-06-30T22:17:49.791Z,3.60
2018-06-30T22:20:18.162Z,4.53
2018-06-30T22:22:46.551Z,3.83
2018-06-30T22:25:14.944Z,3.93
2018-06-30T22:27:43.361Z,3.63
2018-06-30T22:30:11.739Z,2.83
2018-06-30T22:32:40.104Z,2.60
2018-06-30T22:35:08.531Z,2.93
2018-06-30T22:37:36.947Z,2.40
2018-06-30T22:40:16.637Z,2.13
2018-06-30T22:42:45.725Z,2.43
2018-06-30T22:45:14.556Z,2.63
2018-06-30T22:47:43.067Z,2.17
2018-06-30T22:50:11.480Z,2.00
2018-06-30T22:52:39.905Z,2.00
2018-06-30T22:55:08.381Z,2.13
2018-06-30T22:57:37.016Z,1.80
2018-06-30T23:00:08.232Z,2.47
2018-06-30T23:02:36.651Z,2.60
2018-06-30T23:05:05.362Z,1.80
2018-06-30T23:07:33.857Z,2.27
2018-06-30T23:10:02.220Z,1.93
2018-06-30T23:12:30.640Z,1.87
2018-06-30T23:14:59.133Z,1.63
2018-06-30T23:17:27.537Z,1.67
2018-06-30T23:19:56.017Z,1.90
2018-06-30T23:22:36.094Z,2.53
2018-06-30T23:25:04.472Z,1.77
2018-06-30T23:27:32.827Z,1.40
2018-06-30T23:30:01.289Z,2.33
2018-06-30T23:32:29.641Z,2.70
2018-06-30T23:34:58.055Z,2.67
2018-06-30T23:37:26.523Z,1.83
2018-06-30T23:39:55.011Z,2.07
2018-06-30T23:42:23.439Z,1.40
2018-06-30T23:44:51.977Z,1.70
2018-06-30T23:47:20.426Z,1.70
2018-06-30T23:49:48.658Z,1.60
2018-06-30T23:52:17.086Z,1.10
2018-06-30T23:54:45.422Z,1.63
2018-06-30T23:57:13.790Z,1.63
2018-06-30T23:59:41.885Z,1.40
